Time,TemperatureF,DewpointF,PressureIn,WindDirection,WindDirectionDegrees,WindSpeedMPH,WindSpeedGustMPH,Humidity,HourlyPrecipIn,Conditions,Clouds,dailyrainin,SoftwareType,DateUTC
2013-06-17 00:02:00,78.0,-99.9,29.91,SW,219,2.0,3.0,-999,-99.99,,,-99.99,,2013-06-17 04:02:00,
2013-06-17 00:12:00,-999.0,-99.9,29.91,WNW,291,3.0,4.0,-999,-99.99,,,-99.99,,2013-06-17 04:12:00,
2013-06-17 00:23:00,78.0,-99.9,29.91,North,-999,-999.0,-999.0,-999,-99.99,,,-99.99,,2013-06-17 04:23:00,
2013-06-17 00:34:00,78.0,-99.9,29.91,NW,305,1.0,3.0,-999,-99.99,,,-99.99,,2013-06-17 04:34:00,
2013-06-17 00:43:00,-999.0,-99.9,29.91,WNW,292,2.0,2.0,-999,-99.99,,,-99.99,,2013-06-17 04:43:00,
2013-06-17 00:53:00,76.0,-99.9,29.91,North,-999,-999.0,-999.0,-999,-99.99,,,-99.99,,2013-06-17 04:53:00,
2013-06-17 01:02:00,77.0,-99.9,29.91,NNW,333,0.0,2.0,-999,-99.99,,,-99.99,,2013-06-17 05:02:00,
2013-06-17 01:12:00,-999.0,-99.9,29.91,SSW,201,2.0,2.0,-999,-99.99,,,-99.99,,2013-06-17 05:12:00,
2013-06-17 01:22:00,-999.0,-99.9,29.91,South,187,2.0,3.0,-999,-99.99,,,-99.99,,2013-06-17 05:22:00,
2013-06-17 01:33:00,75.0,-99.9,29.91,South,189,2.0,3.0,-999,-99.99,,,-99.99,,2013-06-17 05:33:00,
2013-06-17 01:44:00,75.0,-99.9,29.91,SW,221,1.0,2.0,-999,-99.99,,,-99.99,,2013-06-17 05:44:00,
2013-06-17 01:53:00,76.0,-99.9,29.91,North,-999,-999.0,-999.0,-999,-99.99,,,-99.99,,2013-06-17 05:53:00,
2013-06-17 02:02:00,76.0,-99.9,29.91,SSW,210,1.0,1.0,-999,-99.99,,,-99.99,,2013-06-17 06:02:00,
2013-06-17 02:12:00,75.0,-99.9,29.91,South,180,2.0,3.0,-999,-99.99,,,-99.99,,2013-06-17 06:12:00,
2013-06-17 02:22:00,75.0,-99.9,29.91,South,180,2.0,3.0,-999,-99.99,,,-99.99,,2013-06-17 06:22:00,
2013-06-17 02:33:00,75.0,-99.9,29.91,ENE,76,-999.0,0.0,-999,-99.99,,,-99.99,,2013-06-17 06:33:00,
2013-06-17 02:44:00,74.0,-99.9,29.92,North,-999,-999.0,-999.0,-999,-99.99,,,-99.99,,2013-06-17 06:44:00,
2013-06-17 02:53:00,-999.0,-99.9,29.91,SSE,163,2.0,2.0,-999,-99.99,,,-99.99,,2013-06-17 06:53:00,
2013-06-17 03:02:00,74.0,-99.9,29.91,SSE,156,1.0,2.0,-999,-99.99,,,-99.99,,2013-06-17 07:02:00,
2013-06-17 03:12:00,74.0,-99.9,29.91,North,-999,-999.0,-999.0,-999,-99.99,,,-99.99,,2013-06-17 07:12:00,
2013-06-17 03:22:00,-999.0,-99.9,29.91,NW,304,1.0,1.0,-999,-99.99,,,-99.99,,2013-06-17 07:22:00,
2013-06-17 03:33:00,74.0,-99.9,29.91,West,267,1.0,2.0,-999,-99.99,,,-99.99,,2013-06-17 07:33:00,
2013-06-17 03:43:00,74.0,-99.9,29.91,WSW,257,2.0,2.0,-999,-99.99,,,-99.99,,2013-06-17 07:43:00,
2013-06-17 03:53:00,74.0,-99.9,29.92,North,-999,-999.0,-999.0,-999,-99.99,,,-99.99,,2013-06-17 07:53:00,
2013-06-17 04:02:00,74.0,-99.9,29.92,NW,320,1.0,2.0,-999,-99.99,,,-99.99,,2013-06-17 08:02:00,
2013-06-17 04:12:00,74.0,-99.9,29.92,NNW,333,-999.0,1.0,-999,-99.99,,,-99.99,,2013-06-17 08:12:00,
2013-06-17 04:22:00,74.0,-99.9,29.92,North,-999,-999.0,-999.0,-999,-99.99,,,-99.99,,2013-06-17 08:22:00,
2013-06-17 04:34:00,74.0,-99.9,29.92,NE,42,-999.0,1.0,-999,-99.99,,,-99.99,,2013-06-17 08:34:00,
2013-06-17 04:43:00,-999.0,-99.9,29.92,SSW,210,1.0,1.0,-999,-99.99,,,-99.99,,2013-06-17 08:43:00,
2013-06-17 04:53:00,-999.0,-99.9,29.92,SSW,210,2.0,3.0,-999,-99.99,,,-99.99,,2013-06-17 08:53:00,
2013-06-17 05:02:00,73.0,-99.9,29.92,SSW,211,2.0,3.0,-999,-99.99,,,-99.99,,2013-06-17 09:02:00,
2013-06-17 05:12:00,73.0,-99.9,29.92,SSW,211,2.0,3.0,-999,-99.99,,,-99.99,,2013-06-17 09:12:00,
2013-06-17 05:22:00,74.0,-99.9,29.92,North,-999,-999.0,-999.0,-999,-99.99,,,-99.99,,2013-06-17 09:22:00,
2013-06-17 05:34:00,74.0,-99.9,29.92,South,186,3.0,3.0,-999,-99.99,,,-99.99,,2013-06-17 09:34:00,
2013-06-17 05:44:00,74.0,-99.9,29.93,SSW,209,3.0,4.0,-999,-99.99,,,-99.99,,2013-06-17 09:44:00,
2013-06-17 05:53:00,-999.0,-99.9,29.93,SSW,203,2.0,2.0,-999,-99.99,,,-99.99,,2013-06-17 09:53:00,
2013-06-17 06:02:00,74.0,-99.9,29.93,SSW,213,2.0,3.0,-999,-99.99,,,-99.99,,2013-06-17 10:02:00,
2013-06-17 06:12:00,74.0,-99.9,29.93,North,-999,-999.0,-999.0,-999,-99.99,,,-99.99,,2013-06-17 10:12:00,
2013-06-17 06:22:00,-999.0,-99.9,29.93,SW,214,3.0,3.0,-999,-99.99,,,-99.99,,2013-06-17 10:22:00,
2013-06-17 06:33:00,74.0,-99.9,29.93,SSW,207,2.0,4.0,-999,-99.99,,,-99.99,,2013-06-17 10:33:00,
2013-06-17 06:43:00,74.0,-99.9,29.93,North,-999,-999.0,-999.0,-999,-99.99,,,-99.99,,2013-06-17 10:43:00,
2013-06-17 06:54:00,74.0,-99.9,29.93,North,-999,-999.0,-999.0,-999,-99.99,,,-99.99,,2013-06-17 10:54:00,
2013-06-17 07:02:00,74.0,-99.9,29.93,South,191,1.0,1.0,-999,-99.99,,,-99.99,,2013-06-17 11:02:00,
2013-06-17 07:12:00,74.0,-99.9,29.93,SSW,200,2.0,4.0,-999,-99.99,,,-99.99,,2013-06-17 11:12:00,
2013-06-17 07:23:00,-999.0,-99.9,29.94,SSW,194,2.0,3.0,-999,-99.99,,,-99.99,,2013-06-17 11:23:00,
2013-06-17 07:33:00,74.0,-99.9,29.94,SSW,196,3.0,3.0,-999,-99.99,,,-99.99,,2013-06-17 11:33:00,
2013-06-17 07:43:00,75.0,-99.9,29.94,South,190,2.0,4.0,-999,-99.99,,,-99.99,,2013-06-17 11:43:00,
2013-06-17 07:53:00,-999.0,-99.9,29.94,SSW,203,4.0,5.0,-999,-99.99,,,-99.99,,2013-06-17 11:53:00,
2013-06-17 08:02:00,75.0,-99.9,29.95,SSW,205,3.0,6.0,-999,-99.99,,,-99.99,,2013-06-17 12:02:00,
2013-06-17 08:12:00,-999.0,-99.9,29.95,South,188,5.0,7.0,-999,-99.99,,,-99.99,,2013-06-17 12:12:00,
2013-06-17 08:23:00,-999.0,-99.9,29.95,South,179,5.0,6.0,-999,-99.99,,,-99.99,,2013-06-17 12:23:00,
2013-06-17 08:33:00,75.0,-99.9,29.95,South,184,6.0,6.0,-999,-99.99,,,-99.99,,2013-06-17 12:33:00,
2013-06-17 08:43:00,75.0,-99.9,29.95,North,-999,-999.0,-999.0,-999,-99.99,,,-99.99,,2013-06-17 12:43:00,
2013-06-17 08:53:00,75.0,-99.9,29.95,North,-999,-999.0,-999.0,-999,-99.99,,,-99.99,,2013-06-17 12:53:00,
2013-06-17 09:02:00,76.0,-99.9,29.95,SSW,196,4.0,7.0,-999,-99.99,,,-99.99,,2013-06-17 13:02:00,
2013-06-17 09:12:00,76.0,-99.9,29.95,South,177,8.0,9.0,-999,-99.99,,,-99.99,,2013-06-17 13:12:00,
2013-06-17 09:22:00,76.0,-99.9,29.95,North,-999,-999.0,-999.0,-999,-99.99,,,-99.99,,2013-06-17 13:22:00,
2013-06-17 09:33:00,76.0,-99.9,29.95,South,174,8.0,9.0,-999,-99.99,,,-99.99,,2013-06-17 13:33:00,
2013-06-17 09:43:00,-999.0,-99.9,29.95,South,174,11.0,11.0,-999,-99.99,,,-99.99,,2013-06-17 13:43:00,
2013-06-17 09:53:00,76.0,-99.9,29.95,North,-999,-999.0,-999.0,-999,-99.99,,,-99.99,,2013-06-17 13:53:00,
2013-06-17 10:02:00,76.0,-99.9,29.95,South,172,10.0,12.0,-999,-99.99,,,-99.99,,2013-06-17 14:02:00,
2013-06-17 10:12:00,76.0,-99.9,29.95,North,-999,-999.0,-999.0,-999,-99.99,,,-99.99,,2013-06-17 14:12:00,
2013-06-17 10:22:00,76.0,-99.9,29.95,North,-999,-999.0,-999.0,-999,-99.99,,,-99.99,,2013-06-17 14:22:00,
2013-06-17 10:34:00,-999.0,-99.9,29.94,South,173,7.0,8.0,-999,-99.99,,,-99.99,,2013-06-17 14:34:00,
2013-06-17 10:44:00,77.0,-99.9,29.94,North,-999,-999.0,-999.0,-999,-99.99,,,-99.99,,2013-06-17 14:44:00,
2013-06-17 10:54:00,-999.0,-99.9,29.94,South,171,7.0,8.0,-999,-99.99,,,-99.99,,2013-06-17 14:54:00,
2013-06-17 11:02:00,-999.0,-99.9,29.94,South,171,7.0,8.0,-999,-99.99,,,-99.99,,2013-06-17 15:02:00,
2013-06-17 11:12:00,-999.0,-99.9,29.93,South,171,8.0,9.0,-999,-99.99,,,-99.99,,2013-06-17 15:12:00,
2013-06-17 11:22:00,-999.0,-99.9,29.93,SSE,168,8.0,10.0,-999,-99.99,,,-99.99,,2013-06-17 15:22:00,
2013-06-17 11:33:00,79.0,-99.9,29.92,South,181,7.0,11.0,-999,-99.99,,,-99.99,,2013-06-17 15:33:00,
2013-06-17 11:43:00,79.0,-99.9,29.92,North,-999,-999.0,-999.0,-999,-99.99,,,-99.99,,2013-06-17 15:43:00,
2013-06-17 11:53:00,80.0,-99.9,29.92,North,-999,-999.0,-999.0,-999,-99.99,,,-99.99,,2013-06-17 15:53:00,
2013-06-17 12:02:00,80.0,-99.9,29.92,North,-999,-999.0,-999.0,-999,-99.99,,,-99.99,,2013-06-17 16:02:00,
2013-06-17 12:12:00,81.0,-99.9,29.92,North,-999,-999.0,-999.0,-999,-99.99,,,-99.99,,2013-06-17 16:12:00,
2013-06-17 12:22:00,81.0,-99.9,29.92,North,-999,-999.0,-999.0,-999,-99.99,,,-99.99,,2013-06-17 16:22:00,
2013-06-17 12:33:00,81.0,-99.9,29.93,SW,228,4.0,9.0,-999,-99.99,,,-99.99,,2013-06-17 16:33:00,
2013-06-17 12:43:00,81.0,-99.9,29.92,South,169,4.0,6.0,-999,-99.99,,,-99.99,,2013-06-17 16:43:00,
2013-06-17 12:54:00,-999.0,-99.9,29.92,South,183,6.0,8.0,-999,-99.99,,,-99.99,,2013-06-17 16:54:00,
2013-06-17 13:02:00,81.0,-99.9,29.93,South,183,6.0,7.0,-999,-99.99,,,-99.99,,2013-06-17 17:02:00,
2013-06-17 13:12:00,81.0,-99.9,29.93,South,183,6.0,7.0,-999,-99.99,,,-99.99,,2013-06-17 17:12:00,
2013-06-17 13:22:00,-999.0,-99.9,29.93,South,180,7.0,7.0,-999,-99.99,,,-99.99,,2013-06-17 17:22:00,
2013-06-17 13:33:00,81.0,-99.9,29.93,South,181,4.0,8.0,-999,-99.99,,,-99.99,,2013-06-17 17:33:00,
2013-06-17 13:43:00,-999.0,-99.9,29.92,SSE,168,9.0,9.0,-999,-99.99,,,-99.99,,2013-06-17 17:43:00,
2013-06-17 13:52:00,81.0,-99.9,29.92,North,-999,-999.0,-999.0,-999,-99.99,,,-99.99,,2013-06-17 17:52:00,
2013-06-17 14:02:00,81.0,-99.9,29.92,North,-999,-999.0,-999.0,-999,-99.99,,,-99.99,,2013-06-17 18:02:00,
2013-06-17 14:12:00,80.0,-99.9,29.91,SSE,161,16.0,21.0,-999,-99.99,,,-99.99,,2013-06-17 18:12:00,
2013-06-17 14:23:00,79.0,-99.9,29.92,North,-999,-999.0,-999.0,-999,-99.99,,,-99.99,,2013-06-17 18:23:00,
2013-06-17 14:43:00,81.0,-99.9,29.92,North,-999,-999.0,-999.0,-999,-99.99,,,-99.99,,2013-06-17 18:43:00,
2013-06-17 14:53:00,81.0,-99.9,29.92,North,-999,-999.0,-999.0,-999,-99.99,,,-99.99,,2013-06-17 18:53:00,
2013-06-17 15:02:00,81.0,-99.9,29.91,South,178,6.0,8.0,-999,-99.99,,,-99.99,,2013-06-17 19:02:00,
2013-06-17 15:12:00,-999.0,-99.9,29.91,SSW,201,4.0,5.0,-999,-99.99,,,-99.99,,2013-06-17 19:12:00,
2013-06-17 15:22:00,-999.0,-99.9,29.90,South,182,9.0,10.0,-999,-99.99,,,-99.99,,2013-06-17 19:22:00,
2013-06-17 15:33:00,82.0,-99.9,29.90,South,176,7.0,10.0,-999,-99.99,,,-99.99,,2013-06-17 19:33:00,
2013-06-17 15:44:00,82.0,-99.9,29.90,South,171,7.0,7.0,-999,-99.99,,,-99.99,,2013-06-17 19:44:00,
2013-06-17 15:54:00,82.0,-99.9,29.89,North,-999,-999.0,-999.0,-999,-99.99,,,-99.99,,2013-06-17 19:54:00,
2013-06-17 16:02:00,82.0,-99.9,29.89,North,-999,-999.0,-999.0,-999,-99.99,,,-99.99,,2013-06-17 20:02:00,
2013-06-17 16:11:00,82.0,-99.9,29.88,North,-999,-999.0,-999.0,-999,-99.99,,,-99.99,,2013-06-17 20:11:00,
2013-06-17 16:22:00,83.0,-99.9,29.88,North,-999,-999.0,-999.0,-999,-99.99,,,-99.99,,2013-06-17 20:22:00,
2013-06-17 16:34:00,83.0,-99.9,29.88,South,181,11.0,12.0,-999,-99.99,,,-99.99,,2013-06-17 20:34:00,
2013-06-17 16:43:00,83.0,-99.9,29.88,North,-999,-999.0,-999.0,-999,-99.99,,,-99.99,,2013-06-17 20:43:00,
2013-06-17 16:53:00,-999.0,-99.9,29.87,South,185,9.0,12.0,-999,-99.99,,,-99.99,,2013-06-17 20:53:00,
2013-06-17 17:02:00,83.0,-99.9,29.87,South,188,9.0,11.0,-999,-99.99,,,-99.99,,2013-06-17 21:02:00,
2013-06-17 17:12:00,83.0,-99.9,29.87,South,177,10.0,13.0,-999,-99.99,,,-99.99,,2013-06-17 21:12:00,
2013-06-17 17:22:00,83.0,-99.9,29.87,South,177,10.0,13.0,-999,-99.99,,,-99.99,,2013-06-17 21:22:00,
2013-06-17 17:33:00,82.0,-99.9,29.87,North,-999,-999.0,-999.0,-999,-99.99,,,-99.99,,2013-06-17 21:33:00,
2013-06-17 17:43:00,82.0,-99.9,29.87,North,-999,-999.0,-999.0,-999,-99.99,,,-99.99,,2013-06-17 21:43:00,
2013-06-17 17:52:00,82.0,-99.9,29.87,North,-999,-999.0,-999.0,-999,-99.99,,,-99.99,,2013-06-17 21:52:00,
2013-06-17 18:01:00,83.0,-99.9,29.87,SSE,156,6.0,10.0,-999,-99.99,,,-99.99,,2013-06-17 22:01:00,
2013-06-17 18:12:00,-999.0,-99.9,29.87,SSE,156,8.0,13.0,-999,-99.99,,,-99.99,,2013-06-17 22:12:00,
2013-06-17 18:22:00,-999.0,-99.9,29.87,SSE,156,8.0,13.0,-999,-99.99,,,-99.99,,2013-06-17 22:22:00,
2013-06-17 18:54:00,-999.0,-99.9,29.88,East,98,7.0,10.0,-999,-99.99,,,-99.99,,2013-06-17 22:54:00,
2013-06-17 19:12:00,78.0,-99.9,29.88,North,-999,-999.0,-999.0,-999,-99.99,,,-99.99,,2013-06-17 23:12:00,
2013-06-17 19:22:00,78.0,-99.9,29.88,North,-999,-999.0,-999.0,-999,-99.99,,,-99.99,,2013-06-17 23:22:00,
2013-06-17 19:33:00,78.0,-99.9,29.88,North,-999,-999.0,-999.0,-999,-99.99,,,-99.99,,2013-06-17 23:33:00,
2013-06-17 19:43:00,78.0,-99.9,29.88,North,-999,-999.0,-999.0,-999,-99.99,,,-99.99,,2013-06-17 23:43:00,
2013-06-17 19:53:00,78.0,-99.9,29.88,North,-999,-999.0,-999.0,-999,-99.99,,,-99.99,,2013-06-17 23:53:00,
2013-06-17 20:02:00,80.0,-99.9,29.87,SE,126,4.0,6.0,-999,-99.99,,,-99.99,,2013-06-18 00:02:00,
2013-06-17 20:12:00,-999.0,-99.9,29.88,SE,146,6.0,8.0,-999,-99.99,,,-99.99,,2013-06-18 00:12:00,
2013-06-17 20:22:00,-999.0,-99.9,29.88,SE,146,6.0,8.0,-999,-99.99,,,-99.99,,2013-06-18 00:22:00,
2013-06-17 20:33:00,-999.0,-99.9,29.88,SSE,150,5.0,8.0,-999,-99.99,,,-99.99,,2013-06-18 00:33:00,
2013-06-17 20:43:00,78.0,-99.9,29.88,North,-999,-999.0,-999.0,-999,-99.99,,,-99.99,,2013-06-18 00:43:00,
2013-06-17 20:53:00,78.0,-99.9,29.88,North,-999,-999.0,-999.0,-999,-99.99,,,-99.99,,2013-06-18 00:53:00,
2013-06-17 21:01:00,-999.0,-99.9,29.88,East,93,2.0,4.0,-999,-99.99,,,-99.99,,2013-06-18 01:01:00,
2013-06-17 21:12:00,79.0,-99.9,29.88,SE,144,2.0,4.0,-999,-99.99,,,-99.99,,2013-06-18 01:12:00,
2013-06-17 21:23:00,78.0,-99.9,29.89,North,-999,-999.0,-999.0,-999,-99.99,,,-99.99,,2013-06-18 01:23:00,
2013-06-17 21:34:00,77.0,-99.9,29.89,North,-999,-999.0,-999.0,-999,-99.99,,,-99.99,,2013-06-18 01:34:00,
2013-06-17 21:44:00,80.0,-99.9,29.89,South,179,5.0,9.0,-999,-99.99,,,-99.99,,2013-06-18 01:44:00,
2013-06-17 21:54:00,80.0,-99.9,29.89,North,-999,-999.0,-999.0,-999,-99.99,,,-99.99,,2013-06-18 01:54:00,
2013-06-17 22:02:00,80.0,-99.9,29.89,South,181,6.0,9.0,-999,-99.99,,,-99.99,,2013-06-18 02:02:00,
2013-06-17 22:12:00,80.0,-99.9,29.89,South,181,6.0,9.0,-999,-99.99,,,-99.99,,2013-06-18 02:12:00,
2013-06-17 22:23:00,-999.0,-99.9,29.90,South,182,8.0,10.0,-999,-99.99,,,-99.99,,2013-06-18 02:23:00,
2013-06-17 22:34:00,-999.0,-99.9,29.90,South,182,8.0,10.0,-999,-99.99,,,-99.99,,2013-06-18 02:34:00,
2013-06-17 22:43:00,-999.0,-99.9,29.91,SSW,193,5.0,7.0,-999,-99.99,,,-99.99,,2013-06-18 02:43:00,
2013-06-17 22:53:00,79.0,-99.9,29.91,North,-999,-999.0,-999.0,-999,-99.99,,,-99.99,,2013-06-18 02:53:00,
2013-06-17 23:02:00,79.0,-99.9,29.91,North,-999,-999.0,-999.0,-999,-99.99,,,-99.99,,2013-06-18 03:02:00,
2013-06-17 23:12:00,79.0,-99.9,29.91,SSW,192,6.0,9.0,-999,-99.99,,,-99.99,,2013-06-18 03:12:00,
2013-06-17 23:23:00,79.0,-99.9,29.91,SSW,197,6.0,9.0,-999,-99.99,,,-99.99,,2013-06-18 03:23:00,
2013-06-17 23:34:00,78.0,-99.9,29.91,South,174,6.0,8.0,-999,-99.99,,,-99.99,,2013-06-18 03:34:00,
2013-06-17 23:43:00,78.0,-99.9,29.91,North,-999,-999.0,-999.0,-999,-99.99,,,-99.99,,2013-06-18 03:43:00,
2013-06-17 23:53:00,78.0,-99.9,29.91,North,-999,-999.0,-999.0,-999,-99.99,,,-99.99,,2013-06-18 03:53:00,